createdAt,value
2022-08-30T00:01:09.205Z,87.29
2022-08-30T00:03:45.521Z,87.24
2022-08-30T00:06:14.690Z,87.64
2022-08-30T00:08:45.008Z,87.20
2022-08-30T00:11:17.062Z,87.09
2022-08-30T00:13:47.439Z,88.07
2022-08-30T00:16:15.469Z,88.04
2022-08-30T00:18:44.021Z,87.33
2022-08-30T00:21:12.108Z,87.93
2022-08-30T00:23:40.901Z,88.10
2022-08-30T00:26:10.023Z,88.45
2022-08-30T00:28:37.795Z,88.56
2022-08-30T00:31:07.451Z,88.67
2022-08-30T00:33:35.202Z,89.03
2022-08-30T00:36:03.106Z,89.51
2022-08-30T00:38:30.858Z,89.67
2022-08-30T00:40:59.667Z,89.54
2022-08-30T00:43:34.018Z,89.29
2022-08-30T00:46:07.627Z,88.97
2022-08-30T00:48:38.638Z,88.97
2022-08-30T00:51:11.301Z,89.41
2022-08-30T00:53:42.517Z,89.93
2022-08-30T00:56:11.165Z,90.53
2022-08-30T00:58:45.437Z,90.16
2022-08-30T01:01:13.372Z,89.83
2022-08-30T01:03:43.407Z,89.55
2022-08-30T01:06:12.144Z,89.83
2022-08-30T01:08:40.005Z,89.71
2022-08-30T01:11:08.210Z,89.87
2022-08-30T01:13:36.522Z,89.84
2022-08-30T01:16:06.313Z,89.89
2022-08-30T01:18:36.897Z,90.55
2022-08-30T01:21:10.829Z,91.37
2022-08-30T01:23:43.693Z,90.72
2022-08-30T01:26:12.244Z,90.65
2022-08-30T01:28:41.034Z,90.91
2022-08-30T01:31:09.395Z,90.91
2022-08-30T01:33:38.419Z,90.99
2022-08-30T01:36:10.662Z,91.25
2022-08-30T01:38:42.957Z,91.27
2022-08-30T01:41:13.963Z,91.54
2022-08-30T01:43:42.289Z,91.35
2022-08-30T01:46:10.984Z,91.13
2022-08-30T01:48:39.421Z,91.66
2022-08-30T01:51:07.681Z,92.20
2022-08-30T01:53:35.318Z,92.09
2022-08-30T01:56:05.477Z,92.11
2022-08-30T01:58:33.153Z,92.70
2022-08-30T02:01:01.169Z,92.61
2022-08-30T02:03:33.119Z,92.10
2022-08-30T02:06:04.307Z,92.41
2022-08-30T02:08:32.170Z,92.52
2022-08-30T02:11:04.549Z,91.40
2022-08-30T02:13:32.151Z,90.61
2022-08-30T02:16:00.338Z,89.92
2022-08-30T02:18:28.646Z,90.06
2022-08-30T02:20:56.308Z,90.11
2022-08-30T02:23:23.939Z,91.13
2022-08-30T02:25:51.566Z,91.80
2022-08-30T02:28:20.887Z,91.37
2022-08-30T02:30:49.836Z,91.20
2022-08-30T02:33:17.534Z,91.68
2022-08-30T02:35:45.355Z,91.73
2022-08-30T02:38:13.067Z,92.18
2022-08-30T02:40:41.093Z,92.60
2022-08-30T02:43:08.931Z,93.53
2022-08-30T02:45:38.157Z,93.99
2022-08-30T02:48:06.078Z,94.32
2022-08-30T02:50:33.887Z,93.77
2022-08-30T02:53:01.854Z,93.63
2022-08-30T02:55:29.466Z,93.19
2022-08-30T02:57:57.097Z,92.18
2022-08-30T03:00:24.773Z,92.49
2022-08-30T03:02:53.791Z,92.72
2022-08-30T03:05:21.846Z,93.21
2022-08-30T03:07:49.457Z,93.46
2022-08-30T03:10:17.578Z,94.21
2022-08-30T03:12:45.110Z,95.17
2022-08-30T03:15:13.621Z,95.59
2022-08-30T03:17:41.380Z,95.81
2022-08-30T03:20:11.939Z,96.31
2022-08-30T03:22:40.034Z,95.64
2022-08-30T03:25:09.081Z,96.15
2022-08-30T03:27:36.811Z,96.33
2022-08-30T03:30:05.823Z,96.57
2022-08-30T03:32:33.804Z,96.90
2022-08-30T03:35:01.474Z,96.84
2022-08-30T03:37:30.356Z,96.76
2022-08-30T03:39:58.431Z,97.50
2022-08-30T03:42:26.155Z,97.97
2022-08-30T03:44:55.485Z,99.21
2022-08-30T03:47:23.114Z,99.09
2022-08-30T03:49:50.814Z,98.93
2022-08-30T03:52:18.414Z,99.20
2022-08-30T03:54:47.659Z,98.96
2022-08-30T03:57:20.096Z,98.75
2022-08-30T03:59:52.157Z,98.76
2022-08-30T04:02:19.879Z,98.95
2022-08-30T04:04:47.823Z,99.39
2022-08-30T04:07:15.509Z,99.40
2022-08-30T04:09:43.171Z,99.30
2022-08-30T04:12:12.333Z,99.38
2022-08-30T04:14:43.711Z,99.33
2022-08-30T04:17:11.346Z,99.76
2022-08-30T04:19:39.003Z,100.00
2022-08-30T04:22:06.889Z,100.00
2022-08-30T04:24:34.761Z,100.00
2022-08-30T04:27:02.479Z,100.00
2022-08-30T04:29:31.820Z,100.00
2022-08-30T04:31:59.492Z,100.00
2022-08-30T04:34:27.331Z,100.00
2022-08-30T04:36:55.106Z,100.00
2022-08-30T04:39:22.945Z,100.00
2022-08-30T04:41:50.657Z,100.00
2022-08-30T04:44:19.104Z,100.00
2022-08-30T04:46:48.883Z,100.00
2022-08-30T04:49:16.557Z,100.00
2022-08-30T04:51:44.195Z,100.00
2022-08-30T04:54:12.142Z,100.00
2022-08-30T04:56:40.197Z,100.00
2022-08-30T04:59:07.894Z,100.00
2022-08-30T05:01:44.805Z,100.00
2022-08-30T05:04:14.613Z,100.00
2022-08-30T05:06:42.880Z,100.00
2022-08-30T05:09:10.765Z,100.00
2022-08-30T05:11:38.781Z,100.00
2022-08-30T05:14:06.933Z,100.00
2022-08-30T05:16:34.668Z,100.00
2022-08-30T05:19:02.548Z,100.00
2022-08-30T05:21:31.603Z,99.16
2022-08-30T05:24:01.025Z,97.91
2022-08-30T05:26:31.455Z,97.11
2022-08-30T05:28:59.253Z,96.54
2022-08-30T05:31:29.217Z,95.38
2022-08-30T05:33:57.265Z,94.23
2022-08-30T05:36:29.011Z,94.67
2022-08-30T05:38:58.334Z,94.03
2022-08-30T05:41:27.235Z,93.40
2022-08-30T05:43:55.305Z,93.16
2022-08-30T05:46:23.078Z,92.62
2022-08-30T05:48:51.581Z,91.06
2022-08-30T05:51:21.747Z,90.25
2022-08-30T05:53:51.288Z,89.97
2022-08-30T05:56:24.819Z,90.86
2022-08-30T05:58:53.573Z,90.25
2022-08-30T06:01:23.273Z,90.07
2022-08-30T06:03:51.089Z,90.39
2022-08-30T06:06:18.791Z,89.16
2022-08-30T06:08:47.381Z,87.88
2022-08-30T06:11:16.970Z,86.95
2022-08-30T06:13:46.823Z,86.04
2022-08-30T06:16:16.741Z,85.95
2022-08-30T06:18:44.856Z,84.30
2022-08-30T06:21:17.547Z,82.75
2022-08-30T06:23:45.497Z,81.89
2022-08-30T06:26:13.862Z,78.37
2022-08-30T06:28:41.538Z,78.44
2022-08-30T06:31:12.233Z,76.93
2022-08-30T06:33:40.234Z,76.63
2022-08-30T06:36:10.201Z,74.70
2022-08-30T06:38:38.002Z,75.42
2022-08-30T06:41:06.664Z,75.10
2022-08-30T06:43:34.395Z,75.51
2022-08-30T06:46:03.599Z,74.95
2022-08-30T06:48:33.131Z,72.53
2022-08-30T06:51:00.756Z,70.34
2022-08-30T06:53:29.569Z,68.35
2022-08-30T06:56:00.872Z,66.34
2022-08-30T06:58:29.493Z,65.12
2022-08-30T07:00:57.159Z,64.38
2022-08-30T07:03:27.224Z,64.60
2022-08-30T07:05:57.909Z,62.03
2022-08-30T07:08:27.096Z,61.63
2022-08-30T07:10:56.236Z,59.88
2022-08-30T07:13:24.856Z,58.23
2022-08-30T07:15:53.582Z,56.91
2022-08-30T07:18:39.212Z,54.89
2022-08-30T07:21:11.167Z,52.84
2022-08-30T07:23:39.180Z,51.64
2022-08-30T07:26:08.318Z,47.46
2022-08-30T07:28:38.250Z,46.08
2022-08-30T07:33:40.372Z,42.24
2022-08-30T07:36:10.243Z,41.38
2022-08-30T07:38:38.336Z,40.35
2022-08-30T07:41:07.062Z,40.65
2022-08-30T07:43:35.849Z,39.80
2022-08-30T07:46:04.906Z,40.55
2022-08-30T07:48:32.852Z,40.99
2022-08-30T07:51:05.278Z,40.35
2022-08-30T07:53:34.751Z,40.04
2022-08-30T07:56:04.766Z,41.01
2022-08-30T07:58:32.646Z,41.30
2022-08-30T08:01:00.451Z,40.42
2022-08-30T08:03:28.114Z,40.32
2022-08-30T08:05:55.765Z,41.30
2022-08-30T08:08:24.302Z,40.15
2022-08-30T08:10:53.307Z,40.48
2022-08-30T08:13:21.170Z,39.42
2022-08-30T08:15:48.841Z,39.99
2022-08-30T08:18:16.751Z,39.98
2022-08-30T08:20:44.505Z,39.57
2022-08-30T08:23:12.176Z,39.50
2022-08-30T08:25:42.198Z,39.96
2022-08-30T08:28:11.260Z,40.84
2022-08-30T08:30:40.453Z,41.38
2022-08-30T08:33:09.403Z,41.49
2022-08-30T08:35:37.220Z,41.35
2022-08-30T08:38:04.961Z,41.47
2022-08-30T08:40:39.300Z,40.32
2022-08-30T08:43:14.244Z,40.36
2022-08-30T08:45:51.829Z,39.76
2022-08-30T08:48:45.574Z,40.13
2022-08-30T08:51:37.962Z,40.18
2022-08-30T08:54:12.331Z,39.17
2022-08-30T08:56:40.017Z,40.10
2022-08-30T08:59:11.466Z,40.18
2022-08-30T09:01:39.938Z,39.06
2022-08-30T09:04:13.059Z,38.92
2022-08-30T09:06:53.315Z,37.79
2022-08-30T09:09:24.654Z,38.18
2022-08-30T09:11:52.310Z,38.47
2022-08-30T09:14:30.090Z,38.73
2022-08-30T09:17:02.954Z,39.31
2022-08-30T09:19:34.836Z,38.22
2022-08-30T09:22:05.047Z,37.13
2022-08-30T09:24:40.967Z,37.02
2022-08-30T09:27:23.973Z,35.70
2022-08-30T09:29:56.657Z,34.86
2022-08-30T09:32:28.146Z,34.61
2022-08-30T09:34:56.178Z,34.65
2022-08-30T09:37:28.516Z,33.74
2022-08-30T09:39:56.320Z,32.23
2022-08-30T09:42:26.367Z,32.98
2022-08-30T09:45:10.234Z,33.21
2022-08-30T09:47:40.637Z,32.67
2022-08-30T09:50:11.955Z,32.15
2022-08-30T09:52:52.099Z,32.38
2022-08-30T09:55:33.945Z,31.45
2022-08-30T09:58:07.250Z,31.43
2022-08-30T10:00:38.712Z,31.28
2022-08-30T10:03:22.788Z,31.45
2022-08-30T10:06:07.021Z,31.13
2022-08-30T10:08:40.121Z,31.57
2022-08-30T10:11:12.657Z,31.13
2022-08-30T10:13:47.284Z,31.92
2022-08-30T10:16:22.366Z,31.74
2022-08-30T10:18:56.796Z,30.67
2022-08-30T10:21:27.621Z,29.05
2022-08-30T10:23:58.538Z,30.34
2022-08-30T10:26:30.052Z,29.72
2022-08-30T10:29:00.037Z,28.92
2022-08-30T10:31:38.436Z,28.09
2022-08-30T10:34:11.913Z,28.15
2022-08-30T10:36:44.990Z,28.10
2022-08-30T10:39:20.653Z,28.45
2022-08-30T10:41:54.617Z,27.42
2022-08-30T10:44:28.869Z,27.28
2022-08-30T10:47:07.259Z,27.28
2022-08-30T10:49:40.418Z,28.46
2022-08-30T10:52:20.919Z,28.63
2022-08-30T10:54:53.945Z,29.26
2022-08-30T10:57:22.363Z,28.50
2022-08-30T10:59:55.566Z,27.52
2022-08-30T11:03:11.169Z,28.03
2022-08-30T11:06:10.431Z,26.32
2022-08-30T11:08:54.194Z,26.58
2022-08-30T11:11:34.248Z,26.63
2022-08-30T11:14:05.777Z,27.32
2022-08-30T11:16:38.358Z,26.87
2022-08-30T11:19:17.401Z,27.59
2022-08-30T11:21:49.692Z,26.45
2022-08-30T11:24:21.771Z,26.98
2022-08-30T11:26:57.223Z,27.25
2022-08-30T11:29:34.911Z,27.76
2022-08-30T11:32:26.494Z,27.00
2022-08-30T11:34:58.210Z,26.23
2022-08-30T11:37:37.472Z,26.88
2022-08-30T11:40:13.224Z,26.49
2022-08-30T11:42:46.664Z,26.23
2022-08-30T11:45:52.191Z,25.57
2022-08-30T11:48:39.919Z,26.61
2022-08-30T11:51:58.094Z,26.77
2022-08-30T11:54:44.534Z,26.65
2022-08-30T11:57:22.445Z,27.71
2022-08-30T12:00:00.994Z,27.56
2022-08-30T12:02:51.693Z,26.98
2022-08-30T12:05:51.395Z,25.57
2022-08-30T12:08:48.518Z,25.79
2022-08-30T12:12:02.278Z,26.39
2022-08-30T12:14:49.029Z,27.34
2022-08-30T12:17:40.545Z,28.28
2022-08-30T12:20:17.138Z,27.73
2022-08-30T12:22:45.754Z,28.07
2022-08-30T12:25:25.582Z,27.76
2022-08-30T12:28:08.698Z,26.83
2022-08-30T12:30:39.520Z,26.72
2022-08-30T12:33:11.946Z,26.79
2022-08-30T12:35:41.737Z,27.56
2022-08-30T12:38:18.169Z,27.63
2022-08-30T12:40:57.794Z,26.96
2022-08-30T12:43:39.644Z,27.57
2022-08-30T12:46:12.737Z,27.31
2022-08-30T12:48:44.217Z,26.97
2022-08-30T12:51:35.234Z,26.60
2022-08-30T12:54:25.177Z,27.08
2022-08-30T12:57:10.230Z,26.79
2022-08-30T12:59:58.475Z,26.89
2022-08-30T13:02:30.147Z,27.53
2022-08-30T13:04:58.463Z,27.11
2022-08-30T13:07:33.870Z,26.98
2022-08-30T13:10:12.009Z,26.54
2022-08-30T13:12:42.000Z,26.86
2022-08-30T13:15:18.421Z,27.01
2022-08-30T13:17:47.946Z,26.77
2022-08-30T13:20:26.130Z,27.94
2022-08-30T13:23:07.212Z,26.31
2022-08-30T13:25:36.263Z,26.47
2022-08-30T13:28:07.557Z,26.81
2022-08-30T13:30:35.886Z,26.60
2022-08-30T13:33:03.992Z,26.69
2022-08-30T13:35:33.614Z,27.18
2022-08-30T13:38:02.736Z,26.49
2022-08-30T13:40:30.440Z,26.88
2022-08-30T13:42:58.696Z,26.82
2022-08-30T13:45:43.649Z,26.96
2022-08-30T13:48:13.512Z,26.86
2022-08-30T13:50:42.883Z,26.81
2022-08-30T13:53:10.939Z,26.62
2022-08-30T13:55:40.698Z,27.18
2022-08-30T13:58:09.560Z,26.89
2022-08-30T14:00:39.860Z,26.10
2022-08-30T14:03:08.136Z,26.02
2022-08-30T14:06:15.881Z,27.02
2022-08-30T14:08:45.808Z,26.79
2022-08-30T14:11:18.542Z,27.18
2022-08-30T14:16:37.854Z,27.40
2022-08-30T14:19:07.580Z,25.96
2022-08-30T14:21:35.773Z,25.68
2022-08-30T14:24:04.795Z,25.80
2022-08-30T14:26:35.782Z,25.82
2022-08-30T14:29:06.111Z,26.85
2022-08-30T14:31:38.559Z,27.82
2022-08-30T14:34:07.390Z,27.89
2022-08-30T14:36:37.829Z,27.45
2022-08-30T14:39:09.774Z,27.04
2022-08-30T14:41:43.748Z,26.98
2022-08-30T14:44:12.245Z,27.40
2022-08-30T14:46:41.687Z,27.99
2022-08-30T14:49:11.167Z,27.95
2022-08-30T14:51:39.336Z,27.74
2022-08-30T14:54:07.411Z,27.37
2022-08-30T14:56:35.627Z,26.74
2022-08-30T14:59:04.012Z,26.85
2022-08-30T15:01:33.336Z,27.29
2022-08-30T15:04:07.601Z,27.53
2022-08-30T15:06:35.862Z,26.83
2022-08-30T15:09:05.697Z,26.91
2022-08-30T15:11:34.359Z,28.32
2022-08-30T15:14:02.545Z,28.39
2022-08-30T15:16:32.894Z,28.63
2022-08-30T15:19:00.847Z,28.51
2022-08-30T15:21:32.851Z,27.99
2022-08-30T15:24:03.198Z,27.52
2022-08-30T15:26:31.200Z,27.42
2022-08-30T15:28:59.158Z,27.62
2022-08-30T15:31:31.111Z,27.83
2022-08-30T15:34:00.255Z,27.10
2022-08-30T15:36:31.089Z,27.44
2022-08-30T15:39:00.512Z,27.65
2022-08-30T15:41:29.003Z,26.90
2022-08-30T15:43:58.106Z,26.81
2022-08-30T15:46:30.103Z,27.79
2022-08-30T15:49:01.043Z,27.55
2022-08-30T15:51:41.065Z,27.48
2022-08-30T15:54:11.601Z,27.86
2022-08-30T15:56:40.158Z,27.87
2022-08-30T15:59:11.006Z,28.02
2022-08-30T16:01:40.128Z,27.89
2022-08-30T16:04:07.929Z,27.55
2022-08-30T16:06:38.629Z,28.07
2022-08-30T16:09:07.494Z,27.86
2022-08-30T16:11:36.196Z,27.86
2022-08-30T16:14:05.200Z,27.34
2022-08-30T16:16:32.978Z,27.78
2022-08-30T16:19:00.703Z,27.94
2022-08-30T16:21:30.197Z,28.03
2022-08-30T16:24:01.717Z,28.11
2022-08-30T16:26:31.067Z,28.47
2022-08-30T16:28:59.694Z,28.30
2022-08-30T16:31:29.278Z,28.28
2022-08-30T16:34:02.355Z,28.69
2022-08-30T16:36:32.757Z,28.72
2022-08-30T16:39:01.762Z,28.82
2022-08-30T16:41:29.659Z,29.38
2022-08-30T16:44:00.489Z,29.38
2022-08-30T16:46:28.240Z,29.10
2022-08-30T16:48:58.104Z,29.48
2022-08-30T16:51:28.388Z,29.81
2022-08-30T16:53:57.332Z,29.80
2022-08-30T16:56:29.519Z,29.83
2022-08-30T16:59:01.985Z,30.29
2022-08-30T17:01:31.485Z,30.46
2022-08-30T17:03:59.667Z,30.71
2022-08-30T17:06:27.392Z,30.94
2022-08-30T17:08:56.221Z,31.21
2022-08-30T17:11:25.951Z,31.37
2022-08-30T17:13:54.113Z,31.24
2022-08-30T17:16:27.693Z,31.43
2022-08-30T17:18:56.009Z,31.75
2022-08-30T17:21:27.674Z,31.96
2022-08-30T17:23:58.439Z,31.85
2022-08-30T17:26:32.341Z,32.21
2022-08-30T17:29:00.326Z,32.18
2022-08-30T17:31:30.441Z,32.19
2022-08-30T17:34:02.815Z,32.41
2022-08-30T17:36:36.929Z,32.52
2022-08-30T17:39:11.464Z,32.76
2022-08-30T17:41:45.304Z,32.57
2022-08-30T17:44:18.403Z,32.46
2022-08-30T17:46:46.132Z,32.44
2022-08-30T17:49:13.859Z,32.58
2022-08-30T17:51:42.958Z,32.68
2022-08-30T17:54:11.891Z,32.94
2022-08-30T17:56:41.381Z,33.30
2022-08-30T17:59:10.715Z,33.06
2022-08-30T18:01:41.503Z,33.87
2022-08-30T18:04:10.622Z,33.68
2022-08-30T18:06:38.363Z,34.10
2022-08-30T18:09:09.890Z,34.87
2022-08-30T18:11:39.534Z,34.47
2022-08-30T18:14:10.968Z,35.29
2022-08-30T18:16:53.855Z,34.84
2022-08-30T18:19:23.065Z,35.75
2022-08-30T18:21:50.994Z,35.05
2022-08-30T18:24:19.132Z,35.34
2022-08-30T18:26:47.165Z,35.23
2022-08-30T18:29:26.319Z,35.69
2022-08-30T18:31:57.769Z,36.09
2022-08-30T18:34:25.726Z,36.11
2022-08-30T18:36:54.365Z,35.98
2022-08-30T18:39:22.972Z,36.41
2022-08-30T18:41:53.103Z,35.98
2022-08-30T18:44:28.182Z,35.79
2022-08-30T18:46:57.226Z,36.20
2022-08-30T18:49:25.547Z,35.99
2022-08-30T18:51:53.428Z,36.26
2022-08-30T18:54:21.776Z,36.16
2022-08-30T18:56:51.805Z,36.44
2022-08-30T18:59:19.959Z,36.21
2022-08-30T19:01:49.990Z,36.48
2022-08-30T19:04:22.355Z,36.67
2022-08-30T19:06:58.316Z,36.42
2022-08-30T19:09:26.609Z,36.60
2022-08-30T19:11:54.746Z,36.52
2022-08-30T19:14:22.579Z,36.24
2022-08-30T19:16:53.635Z,36.14
2022-08-30T19:19:21.561Z,36.10
2022-08-30T19:21:49.440Z,36.21
2022-08-30T19:24:17.829Z,36.98
2022-08-30T19:26:46.809Z,37.18
2022-08-30T19:29:15.702Z,37.10
2022-08-30T19:31:44.697Z,36.88
2022-08-30T19:34:14.553Z,37.09
2022-08-30T19:36:42.361Z,37.40
2022-08-30T19:39:13.959Z,37.63
2022-08-30T19:41:42.703Z,38.06
2022-08-30T19:44:10.775Z,38.09
2022-08-30T19:46:38.532Z,37.48
2022-08-30T19:49:08.458Z,37.58
2022-08-30T19:51:38.849Z,37.45
2022-08-30T19:54:14.358Z,37.13
2022-08-30T19:56:42.120Z,37.75
2022-08-30T19:59:09.813Z,37.96
2022-08-30T20:01:38.712Z,37.76
2022-08-30T20:04:06.711Z,37.63
2022-08-30T20:06:34.826Z,37.83
2022-08-30T20:09:04.565Z,38.22
2022-08-30T20:11:32.983Z,38.03
2022-08-30T20:14:00.774Z,38.12
2022-08-30T20:16:35.664Z,38.27
2022-08-30T20:19:06.794Z,38.16
2022-08-30T20:21:34.747Z,38.04
2022-08-30T20:24:09.849Z,38.56
2022-08-30T20:26:38.692Z,38.65
2022-08-30T20:29:07.324Z,39.40
2022-08-30T20:31:36.117Z,39.29
2022-08-30T20:34:05.002Z,39.03
2022-08-30T20:36:33.671Z,39.11
2022-08-30T20:39:02.140Z,39.93
2022-08-30T20:41:31.439Z,39.93
2022-08-30T20:44:00.007Z,40.09
2022-08-30T20:46:31.941Z,40.00
2022-08-30T20:49:03.263Z,40.02
2022-08-30T20:51:31.243Z,40.30
2022-08-30T20:54:02.516Z,39.97
2022-08-30T20:56:31.748Z,40.37
2022-08-30T20:59:01.860Z,40.81
2022-08-30T21:01:29.669Z,40.46
2022-08-30T21:03:57.581Z,40.83
2022-08-30T21:06:25.424Z,40.69
2022-08-30T21:08:53.647Z,40.65
2022-08-30T21:11:21.612Z,40.49
2022-08-30T21:13:50.649Z,40.97
2022-08-30T21:16:21.993Z,40.75
2022-08-30T21:18:50.394Z,40.81
2022-08-30T21:21:21.402Z,40.93
2022-08-30T21:23:49.811Z,40.85
2022-08-30T21:26:19.053Z,41.31
2022-08-30T21:28:47.530Z,41.62
2022-08-30T21:31:18.428Z,41.37
2022-08-30T21:33:48.554Z,41.71
2022-08-30T21:36:34.528Z,41.45
2022-08-30T21:39:02.452Z,41.72
2022-08-30T21:41:31.624Z,41.85
2022-08-30T21:44:03.916Z,41.82
2022-08-30T21:46:33.891Z,41.63
2022-08-30T21:49:04.186Z,41.82
2022-08-30T21:51:36.154Z,42.10
2022-08-30T21:54:07.220Z,42.00
2022-08-30T21:56:35.418Z,42.27
2022-08-30T21:59:03.598Z,42.07
2022-08-30T22:01:33.230Z,42.00
2022-08-30T22:04:03.458Z,42.39
2022-08-30T22:06:33.468Z,42.12
2022-08-30T22:09:02.995Z,41.88
2022-08-30T22:11:32.303Z,42.05
2022-08-30T22:14:00.523Z,42.38
2022-08-30T22:16:29.529Z,42.39
2022-08-30T22:18:58.683Z,42.33
2022-08-30T22:21:28.640Z,42.42
2022-08-30T22:23:57.443Z,42.85
2022-08-30T22:26:26.014Z,42.48
2022-08-30T22:28:55.151Z,42.54
2022-08-30T22:31:24.177Z,42.64
2022-08-30T22:33:53.218Z,42.39
2022-08-30T22:36:32.157Z,42.33
2022-08-30T22:39:02.254Z,42.54
2022-08-30T22:41:32.686Z,43.08
2022-08-30T22:44:00.659Z,42.79
2022-08-30T22:46:34.501Z,42.67
2022-08-30T22:49:03.495Z,43.01
2022-08-30T22:51:33.109Z,43.14
2022-08-30T22:54:01.811Z,43.19
2022-08-30T22:56:30.727Z,43.29
2022-08-30T22:58:58.524Z,43.26
2022-08-30T23:01:29.891Z,43.69
2022-08-30T23:03:58.993Z,43.61
2022-08-30T23:06:26.903Z,43.46
2022-08-30T23:08:55.922Z,43.48
2022-08-30T23:11:23.839Z,43.77
2022-08-30T23:13:52.041Z,43.78
2022-08-30T23:16:20.767Z,44.25
2022-08-30T23:18:48.917Z,44.35
2022-08-30T23:21:19.772Z,44.77
2022-08-30T23:24:05.111Z,44.91
2022-08-30T23:26:51.812Z,45.37
2022-08-30T23:29:36.929Z,45.65
2022-08-30T23:32:22.545Z,45.47
2022-08-30T23:35:08.006Z,45.60
2022-08-30T23:37:53.466Z,46.24
2022-08-30T23:40:40.373Z,46.47
2022-08-30T23:43:27.022Z,47.49
2022-08-30T23:46:15.150Z,47.74
2022-08-30T23:49:04.714Z,48.29
2022-08-30T23:51:50.173Z,48.93
2022-08-30T23:54:35.200Z,49.17
2022-08-30T23:57:20.490Z,49.10
